sensor_id;sensor_type;location;lat;lon;timestamp;temperature;humidity
18252;DHT22;26917;52.328;20.878;2023-04-01T00:03:06;9.10;99.90
18252;DHT22;26917;52.328;20.878;2023-04-01T00:08:39;9.10;99.90
18252;DHT22;26917;52.328;20.878;2023-04-01T00:11:28;9.10;99.90
18252;DHT22;26917;52.328;20.878;2023-04-01T00:15:28;9.10;99.90
18252;DHT22;26917;52.328;20.878;2023-04-01T00:20:51;9.10;99.90
18252;DHT22;26917;52.328;20.878;2023-04-01T00:23:32;9.10;99.90
18252;DHT22;26917;52.328;20.878;2023-04-01T00:27:28;9.10;99.90
18252;DHT22;26917;52.328;20.878;2023-04-01T00:31:12;9.10;99.90
18252;DHT22;26917;52.328;20.878;2023-04-01T00:38:31;9.10;99.90
18252;DHT22;26917;52.328;20.878;2023-04-01T00:42:12;9.10;99.90
18252;DHT22;26917;52.328;20.878;2023-04-01T00:44:50;9.10;99.90
18252;DHT22;26917;52.328;20.878;2023-04-01T00:47:33;9.10;99.90
18252;DHT22;26917;52.328;20.878;2023-04-01T00:50:03;9.10;99.90
18252;DHT22;26917;52.328;20.878;2023-04-01T00:56:27;9.10;99.90
18252;DHT22;26917;52.328;20.878;2023-04-01T00:59:00;9.00;99.90
18252;DHT22;26917;52.328;20.878;2023-04-01T01:02:11;9.00;99.90
18252;DHT22;26917;52.328;20.878;2023-04-01T01:09:39;8.90;99.90
18252;DHT22;26917;52.328;20.878;2023-04-01T01:12:52;8.80;99.90
18252;DHT22;26917;52.328;20.878;2023-04-01T01:27:02;8.90;99.90
18252;DHT22;26917;52.328;20.878;2023-04-01T01:30:05;9.00;99.90
18252;DHT22;26917;52.328;20.878;2023-04-01T01:33:05;8.90;99.90
18252;DHT22;26917;52.328;20.878;2023-04-01T01:35:38;8.90;99.90
18252;DHT22;26917;52.328;20.878;2023-04-01T01:38:18;8.90;99.90
18252;DHT22;26917;52.328;20.878;2023-04-01T01:41:08;8.90;99.90
18252;DHT22;26917;52.328;20.878;2023-04-01T01:43:40;8.90;99.90
18252;DHT22;26917;52.328;20.878;2023-04-01T01:46:14;9.00;99.90
18252;DHT22;26917;52.328;20.878;2023-04-01T01:48:44;8.90;99.90
18252;DHT22;26917;52.328;20.878;2023-04-01T01:51:15;8.90;99.90
18252;DHT22;26917;52.328;20.878;2023-04-01T01:53:45;8.90;99.90
18252;DHT22;26917;52.328;20.878;2023-04-01T01:56:17;9.00;99.90
18252;DHT22;26917;52.328;20.878;2023-04-01T01:58:48;9.00;99.90
18252;DHT22;26917;52.328;20.878;2023-04-01T02:01:24;9.00;99.90
18252;DHT22;26917;52.328;20.878;2023-04-01T02:03:59;9.00;99.90
18252;DHT22;26917;52.328;20.878;2023-04-01T02:06:34;9.00;99.90
18252;DHT22;26917;52.328;20.878;2023-04-01T02:09:10;9.00;99.90
18252;DHT22;26917;52.328;20.878;2023-04-01T02:11:43;9.00;99.90
18252;DHT22;26917;52.328;20.878;2023-04-01T02:14:20;9.00;99.90
18252;DHT22;26917;52.328;20.878;2023-04-01T02:16:53;9.00;99.90
18252;DHT22;26917;52.328;20.878;2023-04-01T02:19:27;9.00;99.90
18252;DHT22;26917;52.328;20.878;2023-04-01T02:22:05;9.00;99.90
18252;DHT22;26917;52.328;20.878;2023-04-01T02:24:40;9.00;99.90
18252;DHT22;26917;52.328;20.878;2023-04-01T02:27:11;9.10;99.90
18252;DHT22;26917;52.328;20.878;2023-04-01T02:29:40;9.10;99.90
18252;DHT22;26917;52.328;20.878;2023-04-01T02:32:10;9.10;99.90
18252;DHT22;26917;52.328;20.878;2023-04-01T02:34:41;9.10;99.90
18252;DHT22;26917;52.328;20.878;2023-04-01T02:37:12;9.00;99.90
18252;DHT22;26917;52.328;20.878;2023-04-01T02:39:41;9.00;99.90
18252;DHT22;26917;52.328;20.878;2023-04-01T02:42:10;9.00;99.90
18252;DHT22;26917;52.328;20.878;2023-04-01T02:44:39;9.00;99.90
18252;DHT22;26917;52.328;20.878;2023-04-01T02:47:07;9.00;99.90
18252;DHT22;26917;52.328;20.878;2023-04-01T02:49:35;9.00;99.90
18252;DHT22;26917;52.328;20.878;2023-04-01T02:52:04;9.00;99.90
18252;DHT22;26917;52.328;20.878;2023-04-01T02:54:34;9.10;99.90
18252;DHT22;26917;52.328;20.878;2023-04-01T02:57:02;9.10;99.90
18252;DHT22;26917;52.328;20.878;2023-04-01T02:59:31;9.10;99.90
18252;DHT22;26917;52.328;20.878;2023-04-01T03:01:59;9.00;99.90
18252;DHT22;26917;52.328;20.878;2023-04-01T03:04:27;9.00;99.90
18252;DHT22;26917;52.328;20.878;2023-04-01T03:06:56;9.00;99.90
18252;DHT22;26917;52.328;20.878;2023-04-01T03:09:24;9.00;99.90
18252;DHT22;26917;52.328;20.878;2023-04-01T03:11:54;9.00;99.90
18252;DHT22;26917;52.328;20.878;2023-04-01T03:14:22;9.00;99.90
18252;DHT22;26917;52.328;20.878;2023-04-01T03:16:51;9.00;99.90
18252;DHT22;26917;52.328;20.878;2023-04-01T03:19:19;9.00;99.90
18252;DHT22;26917;52.328;20.878;2023-04-01T03:21:48;9.00;99.90
18252;DHT22;26917;52.328;20.878;2023-04-01T03:24:16;9.00;99.90
18252;DHT22;26917;52.328;20.878;2023-04-01T03:26:44;8.90;99.90
18252;DHT22;26917;52.328;20.878;2023-04-01T03:29:14;8.90;99.90
18252;DHT22;26917;52.328;20.878;2023-04-01T03:31:43;8.90;99.90
18252;DHT22;26917;52.328;20.878;2023-04-01T03:34:12;8.90;99.90
18252;DHT22;26917;52.328;20.878;2023-04-01T03:36:41;9.00;99.90
18252;DHT22;26917;52.328;20.878;2023-04-01T03:39:09;9.00;99.90
18252;DHT22;26917;52.328;20.878;2023-04-01T03:41:40;9.00;99.90
18252;DHT22;26917;52.328;20.878;2023-04-01T03:44:09;9.00;99.90
18252;DHT22;26917;52.328;20.878;2023-04-01T03:46:39;9.00;99.90
18252;DHT22;26917;52.328;20.878;2023-04-01T03:49:07;9.00;99.90
18252;DHT22;26917;52.328;20.878;2023-04-01T03:51:38;9.00;99.90
18252;DHT22;26917;52.328;20.878;2023-04-01T03:54:07;9.00;99.90
18252;DHT22;26917;52.328;20.878;2023-04-01T03:56:36;9.00;99.90
18252;DHT22;26917;52.328;20.878;2023-04-01T03:59:06;9.00;99.90
18252;DHT22;26917;52.328;20.878;2023-04-01T04:01:35;8.90;99.90
18252;DHT22;26917;52.328;20.878;2023-04-01T04:04:05;8.90;99.90
18252;DHT22;26917;52.328;20.878;2023-04-01T04:06:33;8.90;99.90
18252;DHT22;26917;52.328;20.878;2023-04-01T04:09:02;8.90;99.90
18252;DHT22;26917;52.328;20.878;2023-04-01T04:11:31;8.80;99.90
18252;DHT22;26917;52.328;20.878;2023-04-01T04:14:01;8.80;99.90
18252;DHT22;26917;52.328;20.878;2023-04-01T04:16:29;8.80;99.90
18252;DHT22;26917;52.328;20.878;2023-04-01T04:19:04;8.80;99.90
18252;DHT22;26917;52.328;20.878;2023-04-01T04:21:33;8.80;99.90
18252;DHT22;26917;52.328;20.878;2023-04-01T04:24:01;8.80;99.90
18252;DHT22;26917;52.328;20.878;2023-04-01T04:26:50;8.80;99.90
18252;DHT22;26917;52.328;20.878;2023-04-01T04:29:18;8.70;99.90
18252;DHT22;26917;52.328;20.878;2023-04-01T04:31:47;8.70;99.90
18252;DHT22;26917;52.328;20.878;2023-04-01T04:34:17;8.70;99.90
18252;DHT22;26917;52.328;20.878;2023-04-01T04:36:46;8.70;99.90
18252;DHT22;26917;52.328;20.878;2023-04-01T04:39:32;8.70;99.90
18252;DHT22;26917;52.328;20.878;2023-04-01T04:42:00;8.60;99.90
18252;DHT22;26917;52.328;20.878;2023-04-01T04:44:28;8.60;99.90
18252;DHT22;26917;52.328;20.878;2023-04-01T04:46:59;8.60;99.90
18252;DHT22;26917;52.328;20.878;2023-04-01T04:49:29;8.60;99.90
18252;DHT22;26917;52.328;20.878;2023-04-01T04:52:03;8.70;99.90
18252;DHT22;26917;52.328;20.878;2023-04-01T04:54:32;8.60;99.90
18252;DHT22;26917;52.328;20.878;2023-04-01T04:57:02;8.70;99.90
18252;DHT22;26917;52.328;20.878;2023-04-01T04:59:36;8.60;99.90
18252;DHT22;26917;52.328;20.878;2023-04-01T05:02:33;8.60;99.90
18252;DHT22;26917;52.328;20.878;2023-04-01T05:05:04;8.60;99.90
18252;DHT22;26917;52.328;20.878;2023-04-01T05:07:33;8.60;99.90
18252;DHT22;26917;52.328;20.878;2023-04-01T05:10:02;8.60;99.90
18252;DHT22;26917;52.328;20.878;2023-04-01T05:12:30;8.50;99.90
18252;DHT22;26917;52.328;20.878;2023-04-01T05:15:03;8.50;99.90
18252;DHT22;26917;52.328;20.878;2023-04-01T05:17:32;8.50;99.90
18252;DHT22;26917;52.328;20.878;2023-04-01T05:20:04;8.50;99.90
18252;DHT22;26917;52.328;20.878;2023-04-01T05:22:33;8.40;99.90
18252;DHT22;26917;52.328;20.878;2023-04-01T05:25:02;8.40;99.90
18252;DHT22;26917;52.328;20.878;2023-04-01T05:27:30;8.40;99.90
18252;DHT22;26917;52.328;20.878;2023-04-01T05:29:59;8.40;99.90
18252;DHT22;26917;52.328;20.878;2023-04-01T05:32:49;8.40;99.90
18252;DHT22;26917;52.328;20.878;2023-04-01T05:35:19;8.50;99.90
18252;DHT22;26917;52.328;20.878;2023-04-01T05:37:47;8.50;99.90
18252;DHT22;26917;52.328;20.878;2023-04-01T05:40:15;8.50;99.90
18252;DHT22;26917;52.328;20.878;2023-04-01T05:42:44;8.60;99.90
18252;DHT22;26917;52.328;20.878;2023-04-01T05:45:12;8.60;99.90
18252;DHT22;26917;52.328;20.878;2023-04-01T05:48:11;8.70;99.90
18252;DHT22;26917;52.328;20.878;2023-04-01T05:50:42;8.80;99.90
18252;DHT22;26917;52.328;20.878;2023-04-01T05:53:11;8.90;99.90
18252;DHT22;26917;52.328;20.878;2023-04-01T05:55:42;9.00;99.90
18252;DHT22;26917;52.328;20.878;2023-04-01T05:58:11;9.00;99.90
18252;DHT22;26917;52.328;20.878;2023-04-01T06:00:42;8.90;99.90
18252;DHT22;26917;52.328;20.878;2023-04-01T06:03:13;9.00;99.90
18252;DHT22;26917;52.328;20.878;2023-04-01T06:05:44;9.10;99.90
18252;DHT22;26917;52.328;20.878;2023-04-01T06:08:15;9.20;99.90
18252;DHT22;26917;52.328;20.878;2023-04-01T06:11:01;9.10;99.90
18252;DHT22;26917;52.328;20.878;2023-04-01T06:13:44;9.30;99.90
18252;DHT22;26917;52.328;20.878;2023-04-01T06:16:24;9.40;99.90
18252;DHT22;26917;52.328;20.878;2023-04-01T06:19:11;9.40;99.90
18252;DHT22;26917;52.328;20.878;2023-04-01T06:25:29;9.60;99.90
18252;DHT22;26917;52.328;20.878;2023-04-01T06:31:05;9.60;99.90
18252;DHT22;26917;52.328;20.878;2023-04-01T06:33:50;9.50;99.90
18252;DHT22;26917;52.328;20.878;2023-04-01T06:36:39;9.50;99.90
18252;DHT22;26917;52.328;20.878;2023-04-01T06:39:39;9.60;99.90
18252;DHT22;26917;52.328;20.878;2023-04-01T06:42:26;9.70;99.90
18252;DHT22;26917;52.328;20.878;2023-04-01T06:45:12;9.80;99.90
18252;DHT22;26917;52.328;20.878;2023-04-01T06:48:19;10.00;99.90
18252;DHT22;26917;52.328;20.878;2023-04-01T06:51:16;10.00;99.90
18252;DHT22;26917;52.328;20.878;2023-04-01T06:54:11;10.10;99.90
18252;DHT22;26917;52.328;20.878;2023-04-01T06:57:05;10.10;99.90
18252;DHT22;26917;52.328;20.878;2023-04-01T06:59:38;10.20;99.90
18252;DHT22;26917;52.328;20.878;2023-04-01T07:02:18;10.20;99.90
18252;DHT22;26917;52.328;20.878;2023-04-01T07:04:53;10.20;99.90
18252;DHT22;26917;52.328;20.878;2023-04-01T07:07:29;10.30;99.90
18252;DHT22;26917;52.328;20.878;2023-04-01T07:10:05;10.40;99.90
18252;DHT22;26917;52.328;20.878;2023-04-01T07:12:58;10.50;99.90
18252;DHT22;26917;52.328;20.878;2023-04-01T07:15:58;10.50;99.90
18252;DHT22;26917;52.328;20.878;2023-04-01T07:18:34;10.50;99.90
18252;DHT22;26917;52.328;20.878;2023-04-01T07:21:10;10.40;99.90
18252;DHT22;26917;52.328;20.878;2023-04-01T07:23:45;10.40;99.90
18252;DHT22;26917;52.328;20.878;2023-04-01T07:26:44;10.30;99.90
18252;DHT22;26917;52.328;20.878;2023-04-01T07:29:17;10.40;99.90
18252;DHT22;26917;52.328;20.878;2023-04-01T07:32:09;10.30;99.90
18252;DHT22;26917;52.328;20.878;2023-04-01T07:34:50;10.20;99.90
18252;DHT22;26917;52.328;20.878;2023-04-01T07:37:25;10.30;99.90
18252;DHT22;26917;52.328;20.878;2023-04-01T07:40:03;10.20;99.90
18252;DHT22;26917;52.328;20.878;2023-04-01T07:42:47;10.10;99.90
18252;DHT22;26917;52.328;20.878;2023-04-01T07:45:23;10.00;99.90
18252;DHT22;26917;52.328;20.878;2023-04-01T07:48:05;9.90;99.90
18252;DHT22;26917;52.328;20.878;2023-04-01T07:50:40;9.90;99.90
18252;DHT22;26917;52.328;20.878;2023-04-01T07:53:18;9.80;99.90
18252;DHT22;26917;52.328;20.878;2023-04-01T07:55:57;10.00;99.90
18252;DHT22;26917;52.328;20.878;2023-04-01T07:58:36;10.20;99.90
18252;DHT22;26917;52.328;20.878;2023-04-01T08:01:16;10.20;99.90
18252;DHT22;26917;52.328;20.878;2023-04-01T08:04:00;10.20;99.90
18252;DHT22;26917;52.328;20.878;2023-04-01T08:06:39;10.20;99.90
18252;DHT22;26917;52.328;20.878;2023-04-01T08:09:15;10.30;99.90
18252;DHT22;26917;52.328;20.878;2023-04-01T08:12:32;10.60;99.90
18252;DHT22;26917;52.328;20.878;2023-04-01T08:15:26;10.80;99.90
18252;DHT22;26917;52.328;20.878;2023-04-01T08:18:15;11.00;99.90
18252;DHT22;26917;52.328;20.878;2023-04-01T08:20:52;11.20;99.90
18252;DHT22;26917;52.328;20.878;2023-04-01T08:23:26;11.30;99.90
18252;DHT22;26917;52.328;20.878;2023-04-01T08:26:00;11.30;99.90
18252;DHT22;26917;52.328;20.878;2023-04-01T08:28:39;11.20;99.90
18252;DHT22;26917;52.328;20.878;2023-04-01T08:31:13;11.10;99.90
18252;DHT22;26917;52.328;20.878;2023-04-01T08:33:46;10.90;99.90
18252;DHT22;26917;52.328;20.878;2023-04-01T08:36:20;10.60;99.90
18252;DHT22;26917;52.328;20.878;2023-04-01T08:39:06;10.40;99.90
18252;DHT22;26917;52.328;20.878;2023-04-01T08:42:07;10.20;99.90
18252;DHT22;26917;52.328;20.878;2023-04-01T08:45:28;10.10;99.90
18252;DHT22;26917;52.328;20.878;2023-04-01T08:48:21;10.10;99.90
18252;DHT22;26917;52.328;20.878;2023-04-01T08:51:11;10.20;99.90
18252;DHT22;26917;52.328;20.878;2023-04-01T08:54:10;10.20;99.90
18252;DHT22;26917;52.328;20.878;2023-04-01T08:56:53;10.30;99.90
18252;DHT22;26917;52.328;20.878;2023-04-01T08:59:54;10.30;99.90
18252;DHT22;26917;52.328;20.878;2023-04-01T09:03:02;10.30;99.90
18252;DHT22;26917;52.328;20.878;2023-04-01T09:08:57;10.40;99.90
18252;DHT22;26917;52.328;20.878;2023-04-01T09:11:40;10.70;99.90
18252;DHT22;26917;52.328;20.878;2023-04-01T09:17:48;10.90;99.90
18252;DHT22;26917;52.328;20.878;2023-04-01T09:23:33;10.70;99.90
18252;DHT22;26917;52.328;20.878;2023-04-01T09:29:16;10.60;99.90
18252;DHT22;26917;52.328;20.878;2023-04-01T09:32:11;10.60;99.90
18252;DHT22;26917;52.328;20.878;2023-04-01T09:35:10;10.50;99.90
18252;DHT22;26917;52.328;20.878;2023-04-01T09:37:53;10.70;99.90
18252;DHT22;26917;52.328;20.878;2023-04-01T09:40:33;10.70;99.90
18252;DHT22;26917;52.328;20.878;2023-04-01T09:43:30;10.80;99.90
18252;DHT22;26917;52.328;20.878;2023-04-01T09:46:16;11.10;99.90
18252;DHT22;26917;52.328;20.878;2023-04-01T09:49:09;11.10;99.90
18252;DHT22;26917;52.328;20.878;2023-04-01T09:51:54;11.10;99.90
18252;DHT22;26917;52.328;20.878;2023-04-01T09:54:39;10.90;99.90
18252;DHT22;26917;52.328;20.878;2023-04-01T10:01:31;11.10;99.90
18252;DHT22;26917;52.328;20.878;2023-04-01T10:04:35;11.10;99.90
18252;DHT22;26917;52.328;20.878;2023-04-01T10:07:41;11.10;99.90
18252;DHT22;26917;52.328;20.878;2023-04-01T10:10:46;10.90;99.90
18252;DHT22;26917;52.328;20.878;2023-04-01T10:14:20;11.00;99.90
18252;DHT22;26917;52.328;20.878;2023-04-01T10:20:21;11.10;99.90
18252;DHT22;26917;52.328;20.878;2023-04-01T10:26:30;11.70;99.90
18252;DHT22;26917;52.328;20.878;2023-04-01T10:29:53;12.30;99.90
18252;DHT22;26917;52.328;20.878;2023-04-01T10:39:17;11.80;99.90
18252;DHT22;26917;52.328;20.878;2023-04-01T10:45:56;11.10;99.90
18252;DHT22;26917;52.328;20.878;2023-04-01T10:48:52;10.70;99.90
18252;DHT22;26917;52.328;20.878;2023-04-01T10:54:48;10.50;99.90
18252;DHT22;26917;52.328;20.878;2023-04-01T10:57:57;10.50;99.90
18252;DHT22;26917;52.328;20.878;2023-04-01T11:05:06;10.80;99.90
18252;DHT22;26917;52.328;20.878;2023-04-01T11:17:50;11.00;99.90
18252;DHT22;26917;52.328;20.878;2023-04-01T11:20:45;11.00;99.90
18252;DHT22;26917;52.328;20.878;2023-04-01T11:23:50;10.90;99.90
18252;DHT22;26917;52.328;20.878;2023-04-01T11:26:44;10.70;99.90
18252;DHT22;26917;52.328;20.878;2023-04-01T11:30:10;10.70;99.90
18252;DHT22;26917;52.328;20.878;2023-04-01T11:32:57;10.90;99.90
18252;DHT22;26917;52.328;20.878;2023-04-01T11:35:38;11.00;99.90
18252;DHT22;26917;52.328;20.878;2023-04-01T11:38:23;11.10;99.90
18252;DHT22;26917;52.328;20.878;2023-04-01T11:41:09;11.30;99.90
18252;DHT22;26917;52.328;20.878;2023-04-01T11:44:16;11.60;99.90
18252;DHT22;26917;52.328;20.878;2023-04-01T11:47:45;11.60;99.90
18252;DHT22;26917;52.328;20.878;2023-04-01T11:50:39;11.50;99.90
18252;DHT22;26917;52.328;20.878;2023-04-01T11:53:22;11.30;99.90
18252;DHT22;26917;52.328;20.878;2023-04-01T11:56:02;11.20;99.90
18252;DHT22;26917;52.328;20.878;2023-04-01T11:59:10;11.10;99.90
18252;DHT22;26917;52.328;20.878;2023-04-01T12:01:58;10.90;99.90
18252;DHT22;26917;52.328;20.878;2023-04-01T12:11:17;11.20;99.90
18252;DHT22;26917;52.328;20.878;2023-04-01T12:17:09;11.30;99.90
18252;DHT22;26917;52.328;20.878;2023-04-01T12:19:53;11.30;99.90
18252;DHT22;26917;52.328;20.878;2023-04-01T12:22:55;11.40;99.90
18252;DHT22;26917;52.328;20.878;2023-04-01T12:29:07;11.60;99.90
18252;DHT22;26917;52.328;20.878;2023-04-01T12:32:24;11.70;99.90
18252;DHT22;26917;52.328;20.878;2023-04-01T12:35:19;11.90;99.90
18252;DHT22;26917;52.328;20.878;2023-04-01T12:38:03;12.00;99.90
18252;DHT22;26917;52.328;20.878;2023-04-01T12:40:49;11.90;99.90
18252;DHT22;26917;52.328;20.878;2023-04-01T12:47:00;11.60;99.90
18252;DHT22;26917;52.328;20.878;2023-04-01T12:49:58;11.30;99.90
18252;DHT22;26917;52.328;20.878;2023-04-01T12:52:39;11.20;99.90
18252;DHT22;26917;52.328;20.878;2023-04-01T12:55:49;11.00;99.90
18252;DHT22;26917;52.328;20.878;2023-04-01T13:01:30;10.80;99.90
18252;DHT22;26917;52.328;20.878;2023-04-01T13:07:31;10.90;99.90
18252;DHT22;26917;52.328;20.878;2023-04-01T13:10:18;11.00;99.90
18252;DHT22;26917;52.328;20.878;2023-04-01T13:13:05;11.20;99.90
18252;DHT22;26917;52.328;20.878;2023-04-01T13:15:43;11.40;99.90
18252;DHT22;26917;52.328;20.878;2023-04-01T13:18:28;11.60;99.90
18252;DHT22;26917;52.328;20.878;2023-04-01T13:21:15;11.70;99.90
18252;DHT22;26917;52.328;20.878;2023-04-01T13:23:55;11.80;99.90
18252;DHT22;26917;52.328;20.878;2023-04-01T13:26:39;11.70;99.90
18252;DHT22;26917;52.328;20.878;2023-04-01T13:29:15;11.70;99.90
18252;DHT22;26917;52.328;20.878;2023-04-01T13:31:58;11.70;99.90
18252;DHT22;26917;52.328;20.878;2023-04-01T13:34:48;11.50;99.90
18252;DHT22;26917;52.328;20.878;2023-04-01T13:37:38;11.20;99.90
18252;DHT22;26917;52.328;20.878;2023-04-01T13:40:30;11.00;99.90
18252;DHT22;26917;52.328;20.878;2023-04-01T13:43:07;11.10;99.90
18252;DHT22;26917;52.328;20.878;2023-04-01T13:45:46;11.00;99.90
18252;DHT22;26917;52.328;20.878;2023-04-01T13:52:06;11.10;99.90
18252;DHT22;26917;52.328;20.878;2023-04-01T13:55:04;11.10;99.90
18252;DHT22;26917;52.328;20.878;2023-04-01T14:01:00;11.00;99.90
18252;DHT22;26917;52.328;20.878;2023-04-01T14:04:02;10.90;99.90
18252;DHT22;26917;52.328;20.878;2023-04-01T14:06:38;10.90;99.90
18252;DHT22;26917;52.328;20.878;2023-04-01T14:09:39;10.80;99.90
18252;DHT22;26917;52.328;20.878;2023-04-01T14:12:22;10.80;99.90
18252;DHT22;26917;52.328;20.878;2023-04-01T14:15:05;10.70;99.90
18252;DHT22;26917;52.328;20.878;2023-04-01T14:17:47;10.60;99.90
18252;DHT22;26917;52.328;20.878;2023-04-01T14:20:37;10.60;99.90
18252;DHT22;26917;52.328;20.878;2023-04-01T14:23:54;10.40;99.90
18252;DHT22;26917;52.328;20.878;2023-04-01T14:29:34;10.20;99.90
18252;DHT22;26917;52.328;20.878;2023-04-01T14:32:11;10.10;99.90
18252;DHT22;26917;52.328;20.878;2023-04-01T14:35:05;10.10;99.90
18252;DHT22;26917;52.328;20.878;2023-04-01T14:38:15;10.00;99.90
18252;DHT22;26917;52.328;20.878;2023-04-01T14:40:58;10.10;99.90
18252;DHT22;26917;52.328;20.878;2023-04-01T14:43:47;10.10;99.90
18252;DHT22;26917;52.328;20.878;2023-04-01T14:49:46;10.10;99.90
18252;DHT22;26917;52.328;20.878;2023-04-01T14:52:21;10.10;99.90
18252;DHT22;26917;52.328;20.878;2023-04-01T14:54:52;10.20;99.90
18252;DHT22;26917;52.328;20.878;2023-04-01T14:57:24;10.10;99.90
18252;DHT22;26917;52.328;20.878;2023-04-01T15:00:00;10.10;99.90
18252;DHT22;26917;52.328;20.878;2023-04-01T15:02:53;10.10;99.90
18252;DHT22;26917;52.328;20.878;2023-04-01T15:05:32;10.20;99.90
18252;DHT22;26917;52.328;20.878;2023-04-01T15:08:12;10.20;99.90
18252;DHT22;26917;52.328;20.878;2023-04-01T15:16:44;10.30;99.90
18252;DHT22;26917;52.328;20.878;2023-04-01T15:19:23;10.10;99.90
18252;DHT22;26917;52.328;20.878;2023-04-01T15:22:25;10.30;99.90
18252;DHT22;26917;52.328;20.878;2023-04-01T15:25:05;10.30;99.90
18252;DHT22;26917;52.328;20.878;2023-04-01T15:27:47;10.30;99.90
18252;DHT22;26917;52.328;20.878;2023-04-01T15:30:27;10.20;99.90
18252;DHT22;26917;52.328;20.878;2023-04-01T15:33:28;10.20;99.90
18252;DHT22;26917;52.328;20.878;2023-04-01T15:36:05;10.10;99.90
18252;DHT22;26917;52.328;20.878;2023-04-01T15:38:43;10.00;99.90
18252;DHT22;26917;52.328;20.878;2023-04-01T15:41:15;10.00;99.90
18252;DHT22;26917;52.328;20.878;2023-04-01T15:43:48;10.00;99.90
18252;DHT22;26917;52.328;20.878;2023-04-01T15:46:44;9.90;99.90
18252;DHT22;26917;52.328;20.878;2023-04-01T15:49:23;9.90;99.90
18252;DHT22;26917;52.328;20.878;2023-04-01T15:52:06;9.90;99.90
18252;DHT22;26917;52.328;20.878;2023-04-01T15:57:40;9.80;99.90
18252;DHT22;26917;52.328;20.878;2023-04-01T16:00:21;9.70;99.90
18252;DHT22;26917;52.328;20.878;2023-04-01T16:03:09;9.70;99.90
18252;DHT22;26917;52.328;20.878;2023-04-01T16:05:49;9.50;99.90
18252;DHT22;26917;52.328;20.878;2023-04-01T16:11:51;9.50;99.90
18252;DHT22;26917;52.328;20.878;2023-04-01T16:14:35;9.50;99.90
18252;DHT22;26917;52.328;20.878;2023-04-01T16:17:22;9.40;99.90
18252;DHT22;26917;52.328;20.878;2023-04-01T16:20:01;9.40;99.90
18252;DHT22;26917;52.328;20.878;2023-04-01T16:22:33;9.30;99.90
18252;DHT22;26917;52.328;20.878;2023-04-01T16:25:25;9.30;99.90
18252;DHT22;26917;52.328;20.878;2023-04-01T16:28:12;9.10;99.90
18252;DHT22;26917;52.328;20.878;2023-04-01T16:30:47;9.20;99.90
18252;DHT22;26917;52.328;20.878;2023-04-01T16:33:21;9.20;99.90
18252;DHT22;26917;52.328;20.878;2023-04-01T16:35:57;9.10;99.90
18252;DHT22;26917;52.328;20.878;2023-04-01T16:38:35;9.20;99.90
18252;DHT22;26917;52.328;20.878;2023-04-01T16:41:14;9.20;99.90
18252;DHT22;26917;52.328;20.878;2023-04-01T16:43:59;9.20;99.90
18252;DHT22;26917;52.328;20.878;2023-04-01T16:46:39;9.20;99.90
18252;DHT22;26917;52.328;20.878;2023-04-01T16:49:28;9.20;99.90
18252;DHT22;26917;52.328;20.878;2023-04-01T16:52:12;9.10;99.90
18252;DHT22;26917;52.328;20.878;2023-04-01T16:54:45;9.10;99.90
18252;DHT22;26917;52.328;20.878;2023-04-01T16:57:19;9.00;99.90
18252;DHT22;26917;52.328;20.878;2023-04-01T16:59:58;9.00;99.90
18252;DHT22;26917;52.328;20.878;2023-04-01T17:02:35;9.00;99.90
18252;DHT22;26917;52.328;20.878;2023-04-01T17:05:09;8.90;99.90
18252;DHT22;26917;52.328;20.878;2023-04-01T17:07:48;8.90;99.90
18252;DHT22;26917;52.328;20.878;2023-04-01T17:10:37;8.90;99.90
18252;DHT22;26917;52.328;20.878;2023-04-01T17:13:26;8.80;99.90
18252;DHT22;26917;52.328;20.878;2023-04-01T17:16:28;8.80;99.90
18252;DHT22;26917;52.328;20.878;2023-04-01T17:19:04;8.80;99.90
18252;DHT22;26917;52.328;20.878;2023-04-01T17:21:57;8.80;99.90
18252;DHT22;26917;52.328;20.878;2023-04-01T17:24:41;8.80;99.90
18252;DHT22;26917;52.328;20.878;2023-04-01T17:27:22;8.90;99.90
18252;DHT22;26917;52.328;20.878;2023-04-01T17:30:12;8.50;99.90
18252;DHT22;26917;52.328;20.878;2023-04-01T17:32:56;8.60;99.90
18252;DHT22;26917;52.328;20.878;2023-04-01T17:35:30;8.60;99.90
18252;DHT22;26917;52.328;20.878;2023-04-01T17:38:09;8.60;99.90
18252;DHT22;26917;52.328;20.878;2023-04-01T17:40:53;8.90;99.90
18252;DHT22;26917;52.328;20.878;2023-04-01T17:43:33;8.50;99.90
18252;DHT22;26917;52.328;20.878;2023-04-01T17:46:07;8.50;99.90
18252;DHT22;26917;52.328;20.878;2023-04-01T17:48:47;8.40;99.90
18252;DHT22;26917;52.328;20.878;2023-04-01T17:51:24;8.40;99.90
18252;DHT22;26917;52.328;20.878;2023-04-01T17:54:05;8.40;99.90
18252;DHT22;26917;52.328;20.878;2023-04-01T17:56:45;8.40;99.90
18252;DHT22;26917;52.328;20.878;2023-04-01T17:59:23;8.40;99.90
18252;DHT22;26917;52.328;20.878;2023-04-01T18:02:00;8.40;99.90
18252;DHT22;26917;52.328;20.878;2023-04-01T18:04:43;8.30;99.90
18252;DHT22;26917;52.328;20.878;2023-04-01T18:10:34;8.30;99.90
18252;DHT22;26917;52.328;20.878;2023-04-01T18:13:29;8.30;99.90
18252;DHT22;26917;52.328;20.878;2023-04-01T18:16:15;8.30;99.90
18252;DHT22;26917;52.328;20.878;2023-04-01T18:18:57;8.30;99.90
18252;DHT22;26917;52.328;20.878;2023-04-01T18:21:35;8.20;99.90
18252;DHT22;26917;52.328;20.878;2023-04-01T18:24:16;8.20;99.90
18252;DHT22;26917;52.328;20.878;2023-04-01T18:26:50;8.20;99.90
18252;DHT22;26917;52.328;20.878;2023-04-01T18:29:35;8.10;99.90
18252;DHT22;26917;52.328;20.878;2023-04-01T18:32:15;8.20;99.90
18252;DHT22;26917;52.328;20.878;2023-04-01T18:34:55;8.20;99.90
18252;DHT22;26917;52.328;20.878;2023-04-01T18:37:33;8.10;99.90
18252;DHT22;26917;52.328;20.878;2023-04-01T18:40:12;8.20;99.90
18252;DHT22;26917;52.328;20.878;2023-04-01T18:42:55;8.20;99.90
18252;DHT22;26917;52.328;20.878;2023-04-01T18:45:28;8.10;99.90
18252;DHT22;26917;52.328;20.878;2023-04-01T18:48:08;8.10;99.90
18252;DHT22;26917;52.328;20.878;2023-04-01T18:50:43;8.10;99.90
18252;DHT22;26917;52.328;20.878;2023-04-01T18:53:24;8.10;99.90
18252;DHT22;26917;52.328;20.878;2023-04-01T18:55:57;8.10;99.90
18252;DHT22;26917;52.328;20.878;2023-04-01T18:58:47;8.00;99.90
18252;DHT22;26917;52.328;20.878;2023-04-01T19:01:20;8.10;99.90
18252;DHT22;26917;52.328;20.878;2023-04-01T19:04:18;8.10;99.90
18252;DHT22;26917;52.328;20.878;2023-04-01T19:06:51;8.00;99.90
18252;DHT22;26917;52.328;20.878;2023-04-01T19:09:25;8.00;99.90
18252;DHT22;26917;52.328;20.878;2023-04-01T19:12:20;8.00;99.90
18252;DHT22;26917;52.328;20.878;2023-04-01T19:15:07;8.00;99.90
18252;DHT22;26917;52.328;20.878;2023-04-01T19:17:47;8.00;99.90
18252;DHT22;26917;52.328;20.878;2023-04-01T19:20:21;8.00;99.90